createdAt,value
2019-02-17T00:00:02.559Z,147877.67
2019-02-17T00:01:08.279Z,147849.38
2019-02-17T00:02:14.291Z,147827.94
2019-02-17T00:03:20.189Z,147818.53
2019-02-17T00:04:26.130Z,147799.00
2019-02-17T00:05:32.079Z,147785.13
2019-02-17T00:06:38.972Z,147785.13
2019-02-17T00:07:47.212Z,147792.72
2019-02-17T00:08:53.162Z,147803.37
2019-02-17T00:09:59.106Z,147857.56
2019-02-17T00:11:05.141Z,147868.91
2019-02-17T00:12:11.088Z,147852.48
2019-02-17T00:13:16.982Z,147832.38
2019-02-17T00:14:23.970Z,147802.75
2019-02-17T00:15:28.549Z,147829.83
2019-02-17T00:16:34.465Z,147843.08
2019-02-17T00:17:40.435Z,147845.56
2019-02-17T00:18:46.512Z,147807.19
2019-02-17T00:19:52.446Z,147759.34
2019-02-17T00:20:58.365Z,147732.91
2019-02-17T00:22:05.288Z,147698.28
2019-02-17T00:23:11.269Z,147683.19
2019-02-17T00:24:17.183Z,147704.56
2019-02-17T00:25:23.079Z,147686.94
2019-02-17T00:26:29.000Z,147669.31
2019-02-17T00:27:35.867Z,147658.02
2019-02-17T00:28:42.653Z,147671.84
2019-02-17T00:29:48.606Z,147677.50
2019-02-17T00:30:53.815Z,147697.66
2019-02-17T00:31:59.736Z,147688.20
2019-02-17T00:33:05.674Z,147689.47
2019-02-17T00:34:13.667Z,147704.56
2019-02-17T00:35:18.094Z,147708.36
2019-02-17T00:36:24.013Z,147700.77
2019-02-17T00:37:29.650Z,147687.58
2019-02-17T00:38:35.573Z,147681.92
2019-02-17T00:39:41.514Z,147685.05
2019-02-17T00:40:47.433Z,147703.31
2019-02-17T00:41:52.998Z,147733.53
2019-02-17T00:42:59.021Z,147770.66
2019-02-17T00:44:04.959Z,147795.83
2019-02-17T00:45:10.210Z,147835.48
2019-02-17T00:46:16.120Z,147846.83
2019-02-17T00:47:22.028Z,147836.75
2019-02-17T00:48:28.014Z,147821.02
2019-02-17T00:49:34.370Z,147803.37
2019-02-17T00:50:39.903Z,147793.94
2019-02-17T00:51:45.838Z,147785.13
2019-02-17T00:52:52.173Z,147820.38
2019-02-17T00:53:58.069Z,147795.19
2019-02-17T00:55:03.266Z,147809.08
2019-02-17T00:56:09.252Z,147826.72
2019-02-17T00:57:16.395Z,147797.73
2019-02-17T00:58:22.317Z,147766.27
2019-02-17T00:59:28.221Z,147714.66
2019-02-17T01:00:34.100Z,147731.64
2019-02-17T01:01:39.982Z,147722.83
2019-02-17T01:02:45.889Z,147729.73
2019-02-17T01:03:51.939Z,147758.08
2019-02-17T01:04:57.860Z,147754.28
2019-02-17T01:06:03.809Z,147737.30
2019-02-17T01:07:13.317Z,147730.38
2019-02-17T01:08:19.240Z,147737.30
2019-02-17T01:09:24.871Z,147773.19
2019-02-17T01:10:31.026Z,147805.92
2019-02-17T01:11:36.988Z,147838.02
2019-02-17T01:12:42.871Z,147828.56
2019-02-17T01:13:48.799Z,147826.08
2019-02-17T01:14:54.670Z,147780.73
2019-02-17T01:16:00.561Z,147758.72
2019-02-17T01:17:06.085Z,147720.30
2019-02-17T01:18:12.026Z,147720.92
2019-02-17T01:19:21.443Z,147716.55
2019-02-17T01:20:27.073Z,147685.67
2019-02-17T01:21:32.978Z,147698.28
2019-02-17T01:22:38.913Z,147689.47
2019-02-17T01:23:44.880Z,147674.37
2019-02-17T01:24:50.785Z,147658.61
2019-02-17T01:25:56.698Z,147654.22
2019-02-17T01:27:02.590Z,147640.41
2019-02-17T01:28:08.160Z,147652.97
2019-02-17T01:29:20.548Z,147664.94
2019-02-17T01:30:21.623Z,147664.94
2019-02-17T01:31:28.201Z,147689.47
2019-02-17T01:32:34.568Z,147685.05
2019-02-17T01:33:40.534Z,147690.11
2019-02-17T01:34:46.536Z,147648.58
2019-02-17T01:35:52.420Z,147644.78
2019-02-17T01:36:58.341Z,147649.20
2019-02-17T01:38:03.931Z,147649.84
2019-02-17T01:39:09.531Z,147636.59
2019-02-17T01:40:15.447Z,147646.67
2019-02-17T01:41:21.358Z,147626.53
2019-02-17T01:42:27.270Z,147617.08
2019-02-17T01:43:32.939Z,147613.97
2019-02-17T01:44:38.903Z,147656.13
2019-02-17T01:45:44.803Z,147751.17
2019-02-17T01:46:50.691Z,147771.28
2019-02-17T01:47:56.634Z,147785.75
2019-02-17T01:49:04.321Z,147778.20
2019-02-17T01:50:09.579Z,147724.09
2019-02-17T01:51:15.523Z,147644.14
2019-02-17T01:52:22.013Z,147576.19
2019-02-17T01:53:29.416Z,147567.39
2019-02-17T01:54:35.344Z,147570.55
2019-02-17T01:55:42.192Z,147610.17
2019-02-17T01:56:48.073Z,147662.41
2019-02-17T01:57:53.972Z,147708.36
2019-02-17T01:58:59.928Z,147726.58
2019-02-17T02:00:14.423Z,147664.94
2019-02-17T02:01:21.239Z,147626.53
2019-02-17T02:02:26.112Z,147586.91
2019-02-17T02:03:32.027Z,147564.91
2019-02-17T02:04:37.991Z,147555.47
2019-02-17T02:05:43.903Z,147557.36
2019-02-17T02:06:49.790Z,147565.53
2019-02-17T02:07:55.713Z,147574.94
2019-02-17T02:09:01.639Z,147602.00
2019-02-17T02:10:07.899Z,147607.06
2019-02-17T02:11:13.765Z,147603.25
2019-02-17T02:12:19.695Z,147596.34
2019-02-17T02:13:25.603Z,147577.47
2019-02-17T02:14:31.327Z,147573.08
2019-02-17T02:15:37.211Z,147622.78
2019-02-17T02:16:43.093Z,147658.02
2019-02-17T02:17:49.893Z,147618.34
2019-02-17T02:18:55.783Z,147605.78
2019-02-17T02:20:02.793Z,147671.84
2019-02-17T02:21:08.791Z,147634.70
2019-02-17T02:22:14.720Z,147571.19
2019-02-17T02:23:20.660Z,147520.86
2019-02-17T02:24:26.616Z,147504.52
2019-02-17T02:25:32.499Z,147501.98
2019-02-17T02:26:38.971Z,147516.44
2019-02-17T02:27:44.910Z,147503.25
2019-02-17T02:28:51.031Z,147489.42
2019-02-17T02:29:58.650Z,147476.83
2019-02-17T02:31:04.538Z,147463.64
2019-02-17T02:32:10.429Z,147459.84
2019-02-17T02:33:16.327Z,147480.63
2019-02-17T02:34:22.257Z,147551.03
2019-02-17T02:35:28.168Z,147535.31
2019-02-17T02:36:34.085Z,147495.08
2019-02-17T02:37:39.960Z,147512.05
2019-02-17T02:38:45.902Z,147523.97
2019-02-17T02:39:51.841Z,147551.03
2019-02-17T02:40:57.721Z,147551.66
2019-02-17T02:42:03.630Z,147547.91
2019-02-17T02:43:09.537Z,147515.22
2019-02-17T02:44:15.516Z,147516.44
2019-02-17T02:45:21.431Z,147527.77
2019-02-17T02:46:31.715Z,147509.53
2019-02-17T02:47:37.631Z,147540.97
2019-02-17T02:48:43.562Z,147564.27
2019-02-17T02:49:49.495Z,147533.41
2019-02-17T02:50:55.424Z,147514.58
2019-02-17T02:52:01.349Z,147505.78
2019-02-17T02:53:07.287Z,147463.02
2019-02-17T02:54:13.206Z,147451.67
2019-02-17T02:55:20.005Z,147477.45
2019-02-17T02:56:25.923Z,147451.67
2019-02-17T02:57:31.835Z,147443.50
2019-02-17T02:58:37.799Z,147444.13
2019-02-17T02:59:52.186Z,147427.78
2019-02-17T03:00:49.643Z,147433.44
2019-02-17T03:01:55.559Z,147437.86
2019-02-17T03:03:01.459Z,147463.64
2019-02-17T03:04:07.370Z,147463.02
2019-02-17T03:05:13.324Z,147468.02
2019-02-17T03:06:19.784Z,147488.16
2019-02-17T03:07:25.736Z,147487.53
2019-02-17T03:08:32.040Z,147475.56
2019-02-17T03:09:37.938Z,147513.95
2019-02-17T03:10:43.866Z,147513.95
2019-02-17T03:11:49.786Z,147493.81
2019-02-17T03:12:55.735Z,147468.02
2019-02-17T03:14:01.613Z,147424.00
2019-02-17T03:15:07.560Z,147399.47
2019-02-17T03:16:13.130Z,147393.20
2019-02-17T03:17:22.392Z,147381.88
2019-02-17T03:18:28.787Z,147376.86
2019-02-17T03:19:34.747Z,147369.95
2019-02-17T03:20:40.643Z,147381.88
2019-02-17T03:21:46.598Z,147357.36
2019-02-17T03:22:52.489Z,147361.78
2019-02-17T03:23:58.398Z,147364.27
2019-02-17T03:25:03.644Z,147351.08
2019-02-17T03:26:09.560Z,147381.88
2019-02-17T03:27:15.445Z,147379.39
2019-02-17T03:28:21.377Z,147386.94
2019-02-17T03:29:27.341Z,147386.30
2019-02-17T03:30:33.253Z,147369.95
2019-02-17T03:31:39.192Z,147360.53
2019-02-17T03:32:45.126Z,147348.56
2019-02-17T03:33:51.038Z,147336.02
2019-02-17T03:34:57.018Z,147316.50
2019-02-17T03:36:05.684Z,147319.03
2019-02-17T03:37:11.593Z,147306.44
2019-02-17T03:38:17.715Z,147316.50
2019-02-17T03:39:24.185Z,147313.98
2019-02-17T03:40:30.136Z,147315.25
2019-02-17T03:41:36.121Z,147321.56
2019-02-17T03:42:42.226Z,147320.94
2019-02-17T03:43:48.137Z,147325.94
2019-02-17T03:44:54.124Z,147333.48
2019-02-17T03:46:00.090Z,147337.91
2019-02-17T03:47:05.686Z,147360.53
2019-02-17T03:48:11.593Z,147366.16
2019-02-17T03:49:17.181Z,147380.66
2019-02-17T03:50:23.127Z,147409.55
2019-02-17T03:51:29.092Z,147376.22
2019-02-17T03:52:35.026Z,147352.98
2019-02-17T03:53:40.938Z,147329.11
2019-02-17T03:54:46.842Z,147295.17
2019-02-17T03:55:52.795Z,147266.23
2019-02-17T03:56:58.671Z,147265.61
2019-02-17T03:58:04.264Z,147257.44
2019-02-17T03:59:10.169Z,147258.70
2019-02-17T04:00:17.457Z,147271.30
2019-02-17T04:01:22.100Z,147283.83
2019-02-17T04:02:28.032Z,147291.37
2019-02-17T04:03:33.946Z,147310.88
2019-02-17T04:04:39.915Z,147312.13
2019-02-17T04:05:45.805Z,147320.30
2019-02-17T04:06:51.722Z,147320.94
2019-02-17T04:07:58.175Z,147315.88
2019-02-17T04:09:09.691Z,147331.59
2019-02-17T04:10:15.278Z,147334.11
2019-02-17T04:11:21.170Z,147317.78
2019-02-17T04:12:27.095Z,147302.70
2019-02-17T04:13:33.012Z,147294.53
2019-02-17T04:14:38.895Z,147298.91
2019-02-17T04:15:44.132Z,147294.53
2019-02-17T04:16:50.048Z,147298.28
2019-02-17T04:17:56.014Z,147297.02
2019-02-17T04:19:02.839Z,147317.14
2019-02-17T04:20:08.053Z,147312.13
2019-02-17T04:21:14.589Z,147300.81
2019-02-17T04:22:20.499Z,147294.53
2019-02-17T04:23:31.434Z,147290.75
2019-02-17T04:24:32.372Z,147327.84
2019-02-17T04:25:38.262Z,147374.97
2019-02-17T04:26:44.169Z,147394.47
2019-02-17T04:27:50.130Z,147349.81
2019-02-17T04:28:56.016Z,147303.34
2019-02-17T04:30:01.952Z,147275.03
2019-02-17T04:31:07.918Z,147255.53
2019-02-17T04:32:13.850Z,147236.09
2019-02-17T04:33:19.509Z,147244.27
2019-02-17T04:34:25.452Z,147254.91
2019-02-17T04:35:31.321Z,147280.67
2019-02-17T04:36:37.233Z,147345.44
2019-02-17T04:37:42.785Z,147354.88
2019-02-17T04:38:48.784Z,147388.19
2019-02-17T04:39:54.707Z,147383.77
2019-02-17T04:41:00.637Z,147378.12
2019-02-17T04:42:06.571Z,147338.53
2019-02-17T04:43:12.507Z,147298.91
2019-02-17T04:44:18.409Z,147224.77
2019-02-17T04:45:24.349Z,147189.58
2019-02-17T04:46:30.299Z,147175.78
2019-02-17T04:47:36.241Z,147183.94
2019-02-17T04:48:42.234Z,147200.91
2019-02-17T04:49:48.183Z,147225.41
2019-02-17T04:50:53.958Z,147240.47
2019-02-17T04:51:59.911Z,147239.84
2019-02-17T04:53:05.818Z,147231.67
2019-02-17T04:54:11.887Z,147236.09
2019-02-17T04:55:18.087Z,147232.31
2019-02-17T04:56:24.210Z,147222.25
2019-02-17T04:57:30.137Z,147210.97
2019-02-17T04:58:36.151Z,147207.80
2019-02-17T04:59:42.083Z,147204.06
2019-02-17T05:00:49.942Z,147190.84
2019-02-17T05:01:53.925Z,147195.27
2019-02-17T05:02:59.461Z,147199.00
2019-02-17T05:04:05.452Z,147196.47
2019-02-17T05:05:10.665Z,147205.91
2019-02-17T05:06:16.587Z,147213.44
2019-02-17T05:07:22.541Z,147215.97
2019-02-17T05:08:28.501Z,147232.94
2019-02-17T05:09:34.464Z,147231.67
2019-02-17T05:10:40.433Z,147233.56
2019-02-17T05:11:46.343Z,147208.44
2019-02-17T05:12:52.246Z,147185.84
2019-02-17T05:13:58.215Z,147181.41
2019-02-17T05:15:03.892Z,147172.63
2019-02-17T05:16:10.113Z,147165.72
2019-02-17T05:17:16.089Z,147161.34
2019-02-17T05:18:22.017Z,147163.19
2019-02-17T05:19:28.898Z,147164.45
2019-02-17T05:20:35.136Z,147168.25
2019-02-17T05:21:41.119Z,147183.31
2019-02-17T05:22:46.754Z,147180.78
2019-02-17T05:23:52.737Z,147188.94
2019-02-17T05:25:00.411Z,147185.84
2019-02-17T05:26:06.813Z,147188.94
2019-02-17T05:27:12.737Z,147203.44
2019-02-17T05:28:18.687Z,147207.80
2019-02-17T05:29:24.818Z,147212.81
2019-02-17T05:30:30.994Z,147244.89
2019-02-17T05:31:37.143Z,147253.06
2019-02-17T05:32:44.271Z,147289.47
2019-02-17T05:33:50.244Z,147319.03
2019-02-17T05:34:58.957Z,147353.61
2019-02-17T05:36:03.255Z,147382.50
2019-02-17T05:37:10.125Z,147383.77
2019-02-17T05:38:16.143Z,147355.47
2019-02-17T05:39:22.255Z,147341.66
2019-02-17T05:40:28.342Z,147289.47
2019-02-17T05:41:35.158Z,147254.91
2019-02-17T05:42:41.100Z,147257.44
2019-02-17T05:43:47.017Z,147243.00
2019-02-17T05:44:52.989Z,147219.77
2019-02-17T05:45:59.140Z,147195.27
2019-02-17T05:47:05.181Z,147177.03
2019-02-17T05:48:11.110Z,147171.98
2019-02-17T05:49:16.955Z,147162.56
2019-02-17T05:50:23.951Z,147147.48
2019-02-17T05:51:30.183Z,147161.34
2019-02-17T05:52:36.359Z,147168.25
2019-02-17T05:53:42.296Z,147188.31
2019-02-17T05:54:50.396Z,147219.12
2019-02-17T05:55:54.426Z,147202.16
2019-02-17T05:57:00.481Z,147190.22
2019-02-17T05:58:07.552Z,147177.03
2019-02-17T05:59:15.194Z,147166.97
2019-02-17T06:00:21.038Z,147158.19
2019-02-17T06:01:27.039Z,147148.12
2019-02-17T06:02:34.628Z,147142.48
2019-02-17T06:03:40.579Z,147136.80
2019-02-17T06:04:46.573Z,147163.81
2019-02-17T06:05:55.727Z,147187.69
2019-02-17T06:07:02.577Z,147186.47
2019-02-17T06:08:08.553Z,147205.28
2019-02-17T06:09:15.460Z,147241.09
2019-02-17T06:10:21.725Z,147288.22
2019-02-17T06:11:27.960Z,147315.88
2019-02-17T06:12:34.035Z,147268.77
2019-02-17T06:13:40.068Z,147240.47
2019-02-17T06:14:46.133Z,147215.97
2019-02-17T06:15:52.107Z,147185.84
2019-02-17T06:16:58.152Z,147162.56
2019-02-17T06:18:04.220Z,147160.08
2019-02-17T06:19:10.309Z,147147.48
2019-02-17T06:20:16.380Z,147119.25
2019-02-17T06:21:22.486Z,147127.42
2019-02-17T06:22:28.637Z,147104.78
2019-02-17T06:23:34.821Z,147117.36
2019-02-17T06:24:40.855Z,147084.72
2019-02-17T06:25:46.873Z,147078.41
2019-02-17T06:26:52.940Z,147060.86
2019-02-17T06:27:58.898Z,147056.44
2019-02-17T06:29:04.814Z,147052.06
2019-02-17T06:30:10.267Z,147045.75
2019-02-17T06:31:17.256Z,147081.55
2019-02-17T06:32:23.378Z,147092.23
2019-02-17T06:33:29.476Z,147099.78
2019-02-17T06:34:35.483Z,147119.89
2019-02-17T06:35:41.162Z,147128.64
2019-02-17T06:36:47.143Z,147168.25
2019-02-17T06:37:53.270Z,147168.88
2019-02-17T06:38:59.328Z,147154.39
2019-02-17T06:40:04.575Z,147151.28
2019-02-17T06:41:10.628Z,147152.55
2019-02-17T06:42:16.594Z,147153.17
2019-02-17T06:43:23.277Z,147153.17
2019-02-17T06:44:29.465Z,147153.75
2019-02-17T06:45:36.485Z,147152.55
2019-02-17T06:46:42.266Z,147148.12
2019-02-17T06:47:49.072Z,147145.02
2019-02-17T06:48:55.003Z,147144.38
2019-02-17T06:50:01.943Z,147146.22
2019-02-17T06:51:08.177Z,147157.55
2019-02-17T06:52:14.277Z,147160.70
2019-02-17T06:53:20.206Z,147163.81
2019-02-17T06:54:26.140Z,147168.25
2019-02-17T06:55:31.858Z,147174.52
2019-02-17T07:08:38.257Z,147273.77
2019-02-17T07:09:44.753Z,147276.94
2019-02-17T07:10:50.675Z,147284.47
2019-02-17T07:11:56.835Z,147285.73
2019-02-17T07:13:02.514Z,147305.19
2019-02-17T07:14:08.432Z,147326.58
2019-02-17T07:15:14.123Z,147312.13
2019-02-17T07:16:19.827Z,147316.50
2019-02-17T07:17:25.782Z,147315.25
2019-02-17T07:18:31.670Z,147329.11
2019-02-17T07:19:37.595Z,147329.73
2019-02-17T07:20:43.535Z,147339.75
2019-02-17T07:21:49.446Z,147349.81
2019-02-17T07:22:55.400Z,147364.91
2019-02-17T07:24:01.323Z,147359.89
2019-02-17T07:25:06.948Z,147364.91
2019-02-17T07:26:12.929Z,147373.06
2019-02-17T07:27:18.816Z,147374.33
2019-02-17T07:28:24.814Z,147388.83
2019-02-17T07:29:30.719Z,147395.09
2019-02-17T07:30:36.652Z,147397.00
2019-02-17T07:31:42.632Z,147405.17
2019-02-17T07:32:48.629Z,147405.17
2019-02-17T07:33:54.562Z,147409.55
2019-02-17T07:35:00.509Z,147411.44
2019-02-17T07:36:06.435Z,147410.81
2019-02-17T07:37:12.399Z,147427.16
2019-02-17T07:38:18.332Z,147431.53
2019-02-17T07:39:24.270Z,147435.33
2019-02-17T07:40:30.194Z,147446.03
2019-02-17T07:41:36.151Z,147454.20
2019-02-17T07:42:42.058Z,147461.11
2019-02-17T07:43:47.958Z,147463.64
2019-02-17T07:44:53.845Z,147476.19
2019-02-17T07:45:59.754Z,147492.55
2019-02-17T07:47:05.695Z,147504.52
2019-02-17T07:48:11.590Z,147523.39
2019-02-17T07:49:17.475Z,147544.75
2019-02-17T07:50:23.062Z,147565.53
2019-02-17T07:51:29.018Z,147593.19
2019-02-17T07:52:34.993Z,147610.80
2019-02-17T07:53:41.598Z,147622.78
2019-02-17T07:54:47.800Z,147639.12
2019-02-17T07:55:53.751Z,147647.31
2019-02-17T07:56:59.626Z,147665.56
2019-02-17T07:58:05.535Z,147683.83
2019-02-17T07:59:11.465Z,147701.41
2019-02-17T08:00:17.395Z,147725.36
2019-02-17T08:01:23.383Z,147742.36
2019-02-17T08:02:29.260Z,147751.75
2019-02-17T08:03:35.214Z,147762.47
2019-02-17T08:04:41.147Z,147787.02
2019-02-17T08:05:47.135Z,147805.92
2019-02-17T08:06:53.263Z,147834.89
2019-02-17T08:07:59.416Z,147851.27
2019-02-17T08:09:04.578Z,147865.09
2019-02-17T08:10:10.216Z,147889.03
2019-02-17T08:11:16.248Z,147897.84
2019-02-17T08:12:22.207Z,147905.41
2019-02-17T08:13:28.204Z,147986.05
2019-02-17T08:14:34.798Z,148021.92
2019-02-17T08:15:41.103Z,148059.75
2019-02-17T08:16:47.337Z,148079.94
2019-02-17T08:17:53.336Z,148108.27
2019-02-17T08:18:59.462Z,148136.66
2019-02-17T08:20:04.707Z,148139.14
2019-02-17T08:21:11.019Z,148170.06
2019-02-17T08:22:17.201Z,148173.17
2019-02-17T08:23:23.179Z,148199.03
2019-02-17T08:24:30.057Z,148214.19
2019-02-17T08:25:36.049Z,148233.72
2019-02-17T08:26:42.288Z,148225.52
2019-02-17T08:27:48.348Z,148253.28
2019-02-17T08:28:54.390Z,148270.94
2019-02-17T08:30:00.511Z,148317.58
2019-02-17T08:31:06.599Z,148342.17
2019-02-17T08:32:12.536Z,148343.44
2019-02-17T08:33:18.469Z,148338.41
2019-02-17T08:34:24.403Z,148385.06
2019-02-17T08:35:30.682Z,148417.28
2019-02-17T08:36:37.072Z,148429.25
2019-02-17T08:37:43.012Z,148440.63
2019-02-17T08:38:48.959Z,148455.75
2019-02-17T08:39:54.899Z,148445.00
2019-02-17T08:41:00.942Z,148433.69
2019-02-17T08:42:06.783Z,148453.22
2019-02-17T08:43:12.694Z,148468.98
2019-02-17T08:44:18.625Z,148510.62
2019-02-17T08:45:24.510Z,148540.95
2019-02-17T08:46:30.447Z,148568.09
2019-02-17T08:47:36.433Z,148589.55
2019-02-17T08:48:42.854Z,148618.61
2019-02-17T08:49:48.810Z,148654.56
2019-02-17T08:50:54.736Z,148674.16
2019-02-17T08:52:00.954Z,148681.09
2019-02-17T08:53:06.696Z,148715.19
2019-02-17T08:54:12.593Z,148737.97
2019-02-17T08:55:18.478Z,148753.11
2019-02-17T08:56:25.002Z,148775.83
2019-02-17T08:57:31.278Z,148842.16
2019-02-17T08:58:37.170Z,148860.48
2019-02-17T08:59:43.066Z,148876.91
2019-02-17T09:00:48.987Z,148887.67
2019-02-17T09:02:05.211Z,148906.00
2019-02-17T09:03:00.892Z,148909.13
2019-02-17T09:04:06.866Z,148933.83
2019-02-17T09:05:12.384Z,148959.73
2019-02-17T09:06:18.353Z,148976.81
2019-02-17T09:07:24.271Z,149021.06
2019-02-17T09:08:30.210Z,149035.59
2019-02-17T09:09:36.205Z,149045.08
2019-02-17T09:10:42.128Z,149065.34
2019-02-17T09:11:48.102Z,149093.17
2019-02-17T09:12:54.060Z,149110.25
2019-02-17T09:13:59.998Z,149131.09
2019-02-17T09:15:05.231Z,149138.67
2019-02-17T09:16:11.125Z,149160.84
2019-02-17T09:17:17.094Z,149184.86
2019-02-17T09:18:23.705Z,149205.08
2019-02-17T09:19:30.117Z,149237.97
2019-02-17T09:20:36.064Z,149308.84
2019-02-17T09:21:41.985Z,149281.63
2019-02-17T09:22:48.087Z,149286.09
2019-02-17T09:23:53.965Z,149305.08
2019-02-17T09:24:59.897Z,149299.98
2019-02-17T09:26:05.475Z,149306.31
2019-02-17T09:27:11.408Z,149301.25
2019-02-17T09:28:17.280Z,149320.25
2019-02-17T09:29:23.224Z,149312.03
2019-02-17T09:30:29.159Z,149325.94
2019-02-17T09:31:35.149Z,149338.63
2019-02-17T09:32:41.101Z,149360.11
2019-02-17T09:33:46.985Z,149381.02
2019-02-17T09:34:52.883Z,149392.38
2019-02-17T09:35:58.570Z,149388.61
2019-02-17T09:37:04.106Z,149394.94
2019-02-17T09:38:10.049Z,149418.97
2019-02-17T09:39:16.612Z,149435.44
2019-02-17T09:40:22.986Z,149439.25
2019-02-17T09:41:28.909Z,149467.06
2019-02-17T09:42:34.913Z,149482.31
2019-02-17T09:43:40.837Z,149489.25
2019-02-17T09:44:46.854Z,149480.39
2019-02-17T09:45:52.987Z,149484.80
2019-02-17T09:46:59.195Z,149512.67
2019-02-17T09:48:05.303Z,149531.05
2019-02-17T09:49:11.263Z,149551.38
2019-02-17T09:50:17.290Z,149574.80
2019-02-17T09:51:23.222Z,149576.72
2019-02-17T09:52:29.174Z,149579.20
2019-02-17T09:53:35.247Z,149562.75
2019-02-17T09:54:41.249Z,149574.80
2019-02-17T09:55:47.308Z,149609.64
2019-02-17T09:56:53.387Z,149662.19
2019-02-17T09:57:59.446Z,149699.58
2019-02-17T09:59:05.126Z,149676.78
2019-02-17T10:00:12.411Z,149671.69
2019-02-17T10:01:18.433Z,149667.28
2019-02-17T10:02:26.802Z,149679.28
2019-02-17T10:03:30.576Z,149678.06
2019-02-17T10:04:36.505Z,149685.02
2019-02-17T10:05:42.465Z,149686.30
2019-02-17T10:06:48.675Z,149700.22
2019-02-17T10:07:54.903Z,149709.72
2019-02-17T10:09:00.905Z,149732.52
2019-02-17T10:10:07.958Z,149745.22
2019-02-17T10:11:13.943Z,149759.14
2019-02-17T10:12:20.017Z,149771.20
2019-02-17T10:13:26.147Z,149840.23
2019-02-17T10:14:32.064Z,149871.97
2019-02-17T10:15:37.912Z,149863.73
2019-02-17T10:16:43.819Z,149854.22
2019-02-17T10:17:49.797Z,149862.45
2019-02-17T10:18:55.769Z,149845.98
2019-02-17T10:20:01.684Z,149870.70
2019-02-17T10:21:07.682Z,149874.47
2019-02-17T10:22:14.025Z,149899.83
2019-02-17T10:23:20.063Z,149922.05
2019-02-17T10:24:25.970Z,149932.84
2019-02-17T10:25:31.971Z,149944.22
2019-02-17T10:26:37.861Z,149953.75
2019-02-17T10:27:44.068Z,150011.48
2019-02-17T10:28:50.009Z,149989.27
2019-02-17T10:29:56.179Z,150001.33
2019-02-17T10:31:02.237Z,150012.12
2019-02-17T10:32:08.314Z,150031.80
2019-02-17T10:33:14.290Z,150019.73
2019-02-17T10:34:20.361Z,150073.03
2019-02-17T10:35:26.576Z,150083.81
2019-02-17T10:36:32.678Z,150087.59
2019-02-17T10:37:38.734Z,150098.41
2019-02-17T10:38:44.961Z,150042.59
2019-02-17T10:39:50.739Z,150084.45
2019-02-17T10:40:56.699Z,150102.22
2019-02-17T10:42:02.643Z,150049.56
2019-02-17T10:43:08.791Z,150048.28
2019-02-17T10:44:14.982Z,150051.48
2019-02-17T10:45:20.555Z,150101.59
2019-02-17T10:46:26.496Z,150138.34
2019-02-17T10:47:32.134Z,150173.25
2019-02-17T10:48:38.066Z,150180.86
2019-02-17T10:49:43.967Z,150146.59
2019-02-17T10:50:49.899Z,150182.78
2019-02-17T10:51:55.886Z,150176.44
2019-02-17T10:53:01.945Z,150161.86
2019-02-17T10:54:08.474Z,150197.36
2019-02-17T10:55:13.949Z,150239.88
2019-02-17T10:56:19.867Z,150232.91
2019-02-17T10:57:26.009Z,150219.59
2019-02-17T10:58:32.055Z,150237.37
2019-02-17T10:59:38.104Z,150253.87
2019-02-17T11:00:43.802Z,150232.27
2019-02-17T11:01:49.880Z,150255.78
2019-02-17T11:02:55.865Z,150198.00
2019-02-17T11:04:01.298Z,150161.22
2019-02-17T11:05:07.607Z,150177.72
2019-02-17T11:06:14.180Z,150272.28
2019-02-17T11:07:20.217Z,150317.95
2019-02-17T11:08:26.279Z,150292.56
2019-02-17T11:09:32.580Z,150287.50
2019-02-17T11:10:38.589Z,150283.03
2019-02-17T11:11:44.602Z,150339.56
2019-02-17T11:12:50.728Z,150403.08
2019-02-17T11:13:56.683Z,150392.22
2019-02-17T11:15:02.657Z,150405.63
2019-02-17T11:16:08.234Z,150361.77
2019-02-17T11:17:14.165Z,150378.91
2019-02-17T11:18:20.703Z,150418.31
2019-02-17T11:19:26.888Z,150522.48
2019-02-17T11:20:32.889Z,150561.25
2019-02-17T11:21:38.452Z,150563.13
2019-02-17T11:22:44.434Z,150545.97
2019-02-17T11:23:50.517Z,150465.97
2019-02-17T11:24:57.849Z,150486.91
2019-02-17T11:26:02.577Z,150523.75
2019-02-17T11:27:08.768Z,150542.83
2019-02-17T11:28:14.785Z,150539.63
2019-02-17T11:29:20.695Z,150568.87
2019-02-17T11:30:26.630Z,150576.50
2019-02-17T11:31:32.360Z,150572.66
2019-02-17T11:32:38.324Z,150565.03
2019-02-17T11:33:44.032Z,150579.00
2019-02-17T11:34:49.959Z,150605.69
2019-02-17T11:35:55.892Z,150638.14
2019-02-17T11:37:01.816Z,150661.63
2019-02-17T11:38:07.865Z,150652.09
2019-02-17T11:39:13.778Z,150652.73
2019-02-17T11:40:19.702Z,150676.23
2019-02-17T11:41:25.631Z,150699.75
2019-02-17T11:42:31.191Z,150704.22
2019-02-17T11:43:37.392Z,150712.47
2019-02-17T11:44:43.297Z,150735.98
2019-02-17T11:45:49.215Z,150781.17
2019-02-17T11:46:55.102Z,150798.34
2019-02-17T11:48:01.005Z,150748.13
2019-02-17T11:49:07.066Z,150782.45
2019-02-17T11:50:12.679Z,150734.70
2019-02-17T11:51:18.613Z,150818.66
2019-02-17T11:52:27.366Z,150828.84
2019-02-17T11:53:33.312Z,150846.64
2019-02-17T11:54:39.242Z,150867.66
2019-02-17T11:55:45.175Z,150839.02
2019-02-17T11:56:51.116Z,150839.02
2019-02-17T11:57:57.031Z,150887.97
2019-02-17T11:59:02.686Z,150980.81
2019-02-17T12:00:10.745Z,151038.11
2019-02-17T12:01:16.699Z,150966.84
2019-02-17T12:02:24.885Z,150932.50
2019-02-17T12:03:28.691Z,150980.81
2019-02-17T12:04:34.766Z,150935.69
2019-02-17T12:05:40.977Z,150921.67
2019-02-17T12:06:47.082Z,150983.38
2019-02-17T12:07:53.182Z,151057.84
2019-02-17T12:08:59.126Z,151057.84
2019-02-17T12:10:04.853Z,151052.72
2019-02-17T12:11:11.137Z,151079.50
2019-02-17T12:12:17.034Z,151115.14
2019-02-17T12:13:22.912Z,151143.11
2019-02-17T12:14:31.114Z,151155.86
2019-02-17T12:15:37.060Z,151135.47
2019-02-17T12:16:43.122Z,151103.67
2019-02-17T12:17:48.653Z,151031.72
2019-02-17T12:18:54.582Z,150952.22
2019-02-17T12:20:00.241Z,150975.11
2019-02-17T12:21:07.701Z,150940.12
2019-02-17T12:22:13.826Z,150982.73
2019-02-17T12:23:27.136Z,151043.81
2019-02-17T12:24:32.851Z,151038.70
2019-02-17T12:25:41.325Z,150958.58
2019-02-17T12:26:49.965Z,150972.55
2019-02-17T12:27:55.520Z,151006.91
2019-02-17T12:29:01.742Z,151068.67
2019-02-17T12:30:06.747Z,151038.70
2019-02-17T12:31:12.424Z,151084.58
2019-02-17T12:32:18.089Z,151012.66
2019-02-17T12:33:24.011Z,151037.47
2019-02-17T12:34:29.995Z,151067.39
2019-02-17T12:35:35.890Z,151110.03
2019-02-17T12:36:41.770Z,151186.39
2019-02-17T12:37:47.675Z,151282.53
2019-02-17T12:38:53.733Z,151267.89
2019-02-17T12:39:59.654Z,151300.36
2019-02-17T12:41:05.591Z,151331.53
2019-02-17T12:42:11.505Z,151301.00
2019-02-17T12:43:17.425Z,151253.22
2019-02-17T12:44:23.398Z,151246.22
2019-02-17T12:45:29.312Z,151243.66